createdAt,value
2018-05-25T00:02:07.699Z,16.10
2018-05-25T00:07:10.184Z,16.02
2018-05-25T00:12:12.675Z,16.05
2018-05-25T00:17:15.174Z,16.02
2018-05-25T00:22:17.760Z,16.36
2018-05-25T00:27:21.067Z,16.32
2018-05-25T00:32:23.629Z,16.40
2018-05-25T00:37:26.369Z,16.41
2018-05-25T00:42:28.878Z,16.37
2018-05-25T00:47:31.393Z,16.37
2018-05-25T00:52:33.886Z,16.38
2018-05-25T00:57:39.231Z,16.34
2018-05-25T01:02:41.703Z,16.30
2018-05-25T01:07:44.385Z,16.29
2018-05-25T01:12:46.877Z,16.17
2018-05-25T01:17:49.508Z,16.09
2018-05-25T01:22:53.244Z,16.05
2018-05-25T01:27:56.675Z,16.05
2018-05-25T01:32:59.275Z,15.97
2018-05-25T01:38:01.766Z,15.89
2018-05-25T01:43:04.327Z,15.86
2018-05-25T01:48:06.799Z,15.86
2018-05-25T01:53:09.342Z,15.76
2018-05-25T01:58:11.811Z,15.68
2018-05-25T02:03:14.306Z,15.64
2018-05-25T02:08:16.801Z,15.56
2018-05-25T02:13:19.358Z,15.56
2018-05-25T02:18:22.035Z,15.49
2018-05-25T02:23:24.586Z,15.47
2018-05-25T02:28:27.180Z,15.40
2018-05-25T02:33:29.689Z,15.35
2018-05-25T02:38:32.227Z,15.28
2018-05-25T02:43:34.661Z,15.22
2018-05-25T02:48:37.207Z,15.21
2018-05-25T02:53:39.694Z,15.12
2018-05-25T02:58:42.252Z,15.01
2018-05-25T03:03:44.756Z,14.97
2018-05-25T03:08:47.275Z,15.11
2018-05-25T03:13:50.067Z,15.11
2018-05-25T03:18:52.771Z,15.15
2018-05-25T03:23:55.280Z,15.18
2018-05-25T03:28:57.812Z,15.23
2018-05-25T03:34:00.448Z,15.26
2018-05-25T03:39:02.938Z,15.31
2018-05-25T03:44:05.433Z,15.34
2018-05-25T03:49:07.955Z,15.45
2018-05-25T03:54:10.637Z,15.49
2018-05-25T03:59:25.035Z,15.55
2018-05-25T04:04:27.605Z,15.65
2018-05-25T04:09:31.624Z,15.73
2018-05-25T04:14:35.042Z,15.88
2018-05-25T04:19:38.543Z,16.06
2018-05-25T04:24:41.113Z,16.59
2018-05-25T04:29:43.633Z,21.37
2018-05-25T04:34:46.481Z,23.11
2018-05-25T04:39:50.017Z,25.24
2018-05-25T04:44:52.908Z,26.38
2018-05-25T04:49:55.468Z,26.19
2018-05-25T04:54:58.069Z,27.09
2018-05-25T05:00:01.226Z,27.72
2018-05-25T05:05:03.691Z,27.24
2018-05-25T05:10:06.162Z,27.37
2018-05-25T05:15:08.733Z,27.98
2018-05-25T05:20:11.233Z,28.78
2018-05-25T05:25:13.740Z,29.92
2018-05-25T05:30:16.213Z,31.48
2018-05-25T05:35:18.740Z,30.01
2018-05-25T05:40:21.270Z,30.93
2018-05-25T05:45:23.811Z,29.90
2018-05-25T05:50:26.396Z,30.43
2018-05-25T05:55:29.033Z,29.80
2018-05-25T06:00:31.518Z,30.53
2018-05-25T06:05:34.017Z,31.22
2018-05-25T06:10:36.528Z,31.77
2018-05-25T06:15:40.029Z,30.97
2018-05-25T06:20:42.499Z,32.65
2018-05-25T06:25:45.021Z,35.18
2018-05-25T06:30:47.835Z,35.63
2018-05-25T06:35:50.363Z,33.62
2018-05-25T06:40:53.019Z,33.24
2018-05-25T06:45:55.708Z,34.47
2018-05-25T06:50:58.378Z,34.17
2018-05-25T06:56:00.904Z,35.80
2018-05-25T07:01:03.406Z,35.67
2018-05-25T07:06:05.923Z,35.64
2018-05-25T07:11:08.419Z,35.24
2018-05-25T07:16:10.925Z,35.69
2018-05-25T07:21:13.394Z,35.49
2018-05-25T07:26:16.131Z,36.13
2018-05-25T07:31:18.742Z,36.49
2018-05-25T07:36:21.405Z,36.54
2018-05-25T07:41:24.013Z,36.17
2018-05-25T07:46:26.667Z,36.37
2018-05-25T07:51:29.192Z,36.33
2018-05-25T07:56:31.659Z,36.86
2018-05-25T08:01:34.172Z,35.23
2018-05-25T08:06:36.671Z,35.07
2018-05-25T08:11:39.200Z,36.26
2018-05-25T08:16:41.712Z,35.96
2018-05-25T08:21:44.330Z,34.88
2018-05-25T08:26:46.811Z,33.90
2018-05-25T08:31:49.873Z,33.38
2018-05-25T08:36:52.390Z,32.21
2018-05-25T08:41:55.062Z,33.42
2018-05-25T08:46:57.620Z,35.07
2018-05-25T08:52:00.132Z,35.10
2018-05-25T08:57:02.638Z,34.93
2018-05-25T09:02:06.194Z,31.78
2018-05-25T09:07:08.667Z,32.66
2018-05-25T09:12:11.366Z,32.55
2018-05-25T09:17:13.856Z,30.69
2018-05-25T09:22:16.504Z,29.96
2018-05-25T09:27:18.995Z,30.83
2018-05-25T09:32:21.511Z,31.70
2018-05-25T09:37:24.062Z,33.38
2018-05-25T09:42:26.570Z,33.94
2018-05-25T09:47:29.080Z,30.64
2018-05-25T09:52:31.570Z,29.16
2018-05-25T09:57:34.081Z,29.67
2018-05-25T10:02:36.624Z,28.44
2018-05-25T10:07:39.082Z,28.07
2018-05-25T10:12:41.569Z,31.01
2018-05-25T10:17:44.151Z,32.69
2018-05-25T10:22:46.642Z,32.17
2018-05-25T10:27:49.148Z,33.60
2018-05-25T10:32:51.692Z,33.51
2018-05-25T10:37:54.204Z,31.34
2018-05-25T10:42:56.738Z,29.84
2018-05-25T10:47:59.234Z,28.61
2018-05-25T10:53:01.731Z,28.47
2018-05-25T10:58:04.254Z,30.08
2018-05-25T11:03:06.770Z,29.05
2018-05-25T11:08:09.239Z,28.76
2018-05-25T11:13:11.738Z,30.68
2018-05-25T11:18:14.252Z,29.48
2018-05-25T11:23:16.742Z,29.09
2018-05-25T11:28:19.294Z,29.87
2018-05-25T11:33:21.863Z,30.55
2018-05-25T11:38:24.373Z,29.60
2018-05-25T11:43:26.994Z,27.85
2018-05-25T11:48:29.512Z,29.64
2018-05-25T11:53:32.009Z,28.14
2018-05-25T11:58:34.494Z,28.65
2018-05-25T12:03:36.997Z,29.28
2018-05-25T12:08:39.500Z,28.88
2018-05-25T12:13:41.994Z,30.43
2018-05-25T12:18:44.481Z,29.84
2018-05-25T12:23:47.043Z,29.69
2018-05-25T12:28:49.737Z,29.43
2018-05-25T12:33:52.235Z,30.06
2018-05-25T12:38:54.792Z,29.39
2018-05-25T12:43:57.368Z,30.18
2018-05-25T12:48:59.854Z,29.59
2018-05-25T12:54:02.371Z,30.32
2018-05-25T12:59:04.847Z,29.92
2018-05-25T13:04:07.384Z,28.38
2018-05-25T13:09:09.858Z,28.13
2018-05-25T13:14:12.374Z,28.12
2018-05-25T13:19:14.869Z,29.05
2018-05-25T13:24:17.816Z,30.42
2018-05-25T13:29:20.404Z,30.08
2018-05-25T13:34:22.990Z,30.65
2018-05-25T13:39:25.576Z,29.79
2018-05-25T13:44:28.048Z,30.24
2018-05-25T13:49:30.561Z,29.70
2018-05-25T13:54:33.068Z,30.47
2018-05-25T13:59:35.627Z,31.47
2018-05-25T14:04:38.126Z,30.11
2018-05-25T14:09:40.696Z,29.78
2018-05-25T14:14:43.171Z,28.05
2018-05-25T14:19:45.674Z,27.18
2018-05-25T14:24:49.167Z,28.10
2018-05-25T14:29:51.962Z,28.43
2018-05-25T14:34:54.587Z,29.13
2018-05-25T14:39:57.255Z,28.90
2018-05-25T14:44:59.794Z,29.38
2018-05-25T14:50:02.351Z,29.31
2018-05-25T14:55:04.864Z,29.41
2018-05-25T15:00:07.384Z,27.84
2018-05-25T15:05:09.930Z,28.36
2018-05-25T15:10:12.432Z,27.98
2018-05-25T15:15:15.036Z,28.18
2018-05-25T15:20:17.647Z,28.89
2018-05-25T15:25:20.321Z,28.52
2018-05-25T15:30:22.842Z,28.61
2018-05-25T15:35:25.368Z,28.58
2018-05-25T15:40:27.897Z,28.38
2018-05-25T15:45:30.576Z,28.37
2018-05-25T15:50:33.073Z,29.26
2018-05-25T15:55:35.718Z,28.92
2018-05-25T16:00:38.237Z,28.71
2018-05-25T16:05:41.454Z,28.50
2018-05-25T16:10:43.969Z,28.42
2018-05-25T16:15:46.504Z,28.26
2018-05-25T16:20:49.018Z,28.46
2018-05-25T16:25:51.607Z,28.21
2018-05-25T16:30:54.209Z,28.55
2018-05-25T16:35:56.884Z,29.10
2018-05-25T16:40:59.572Z,28.45
2018-05-25T16:46:02.049Z,28.31
2018-05-25T16:51:04.542Z,28.57
2018-05-25T16:56:07.249Z,27.64
2018-05-25T17:01:09.791Z,27.51
2018-05-25T17:06:12.357Z,27.47
2018-05-25T17:11:14.969Z,27.78
2018-05-25T17:16:26.983Z,27.78
2018-05-25T17:21:41.469Z,27.55
2018-05-25T17:26:45.095Z,27.24
2018-05-25T17:31:47.727Z,27.36
2018-05-25T17:36:50.488Z,27.14
2018-05-25T17:41:53.611Z,27.21
2018-05-25T17:46:56.500Z,26.97
2018-05-25T17:57:08.605Z,26.77
2018-05-25T18:02:11.217Z,26.78
2018-05-25T18:07:13.696Z,26.40
2018-05-25T18:12:16.227Z,25.90
2018-05-25T18:17:18.780Z,25.02
2018-05-25T18:22:28.709Z,24.58
2018-05-25T18:27:33.902Z,24.15
2018-05-25T18:32:38.830Z,23.83
2018-05-25T18:37:41.298Z,23.57
2018-05-25T18:42:44.383Z,23.41
2018-05-25T18:47:46.891Z,23.13
2018-05-25T18:52:49.951Z,23.01
2018-05-25T18:57:52.708Z,22.78
2018-05-25T19:02:55.641Z,22.65
2018-05-25T19:07:58.282Z,22.48
2018-05-25T19:13:05.781Z,22.27
2018-05-25T19:18:10.117Z,22.07
2018-05-25T19:23:13.693Z,21.88
2018-05-25T19:28:20.568Z,21.65
2018-05-25T19:33:25.943Z,21.50
2018-05-25T19:38:29.980Z,21.44
2018-05-25T19:43:33.148Z,21.44
2018-05-25T19:48:36.888Z,21.28
2018-05-25T19:53:39.481Z,21.10
2018-05-25T19:58:43.865Z,21.12
2018-05-25T20:03:46.624Z,21.00
2018-05-25T20:08:49.423Z,20.89
2018-05-25T20:13:52.930Z,20.82
2018-05-25T20:18:56.101Z,20.64
2018-05-25T20:23:58.996Z,20.70
2018-05-25T20:29:01.983Z,20.70
2018-05-25T20:34:05.838Z,20.55
2018-05-25T20:39:11.788Z,20.32
2018-05-25T20:44:17.037Z,20.28
2018-05-25T20:49:19.508Z,20.08
2018-05-25T20:54:22.251Z,20.01
2018-05-25T20:59:28.307Z,19.97
2018-05-25T21:04:31.453Z,19.79
2018-05-25T21:09:34.524Z,19.64
2018-05-25T21:14:37.995Z,19.50
2018-05-25T21:19:41.020Z,19.21
2018-05-25T21:24:43.952Z,19.09
2018-05-25T21:29:48.380Z,19.04
2018-05-25T21:34:51.344Z,19.07
2018-05-25T21:39:54.183Z,18.96
2018-05-25T21:44:56.747Z,18.88
2018-05-25T21:49:59.295Z,18.73
2018-05-25T21:55:03.750Z,18.66
2018-05-25T22:00:07.020Z,18.64
2018-05-25T22:05:09.721Z,18.33
2018-05-25T22:10:12.757Z,18.13
2018-05-25T22:15:15.547Z,17.98
2018-05-25T22:20:18.386Z,17.86
2018-05-25T22:25:21.636Z,17.90
2018-05-25T22:30:24.558Z,17.87
2018-05-25T22:35:27.317Z,17.67
2018-05-25T22:40:29.875Z,17.48
2018-05-25T22:45:44.267Z,17.37
2018-05-25T22:50:58.711Z,17.38
2018-05-25T22:56:01.204Z,17.31
2018-05-25T23:01:06.525Z,17.17
2018-05-25T23:06:09.874Z,17.18
2018-05-25T23:11:12.370Z,16.99
2018-05-25T23:16:15.839Z,17.06
2018-05-25T23:21:18.478Z,17.01
2018-05-25T23:26:21.056Z,16.99
2018-05-25T23:31:23.630Z,16.83
2018-05-25T23:36:26.153Z,16.68
2018-05-25T23:41:28.690Z,16.44
2018-05-25T23:46:31.190Z,16.31
2018-05-25T23:51:33.701Z,16.40
2018-05-25T23:56:36.261Z,16.28
